sensor_id;sensor_type;location;lat;lon;timestamp;P1;durP1;ratioP1;P2;durP2;ratioP2
14903;SDS011;7543;53.148;8.234;2023-08-20T00:01:40;10.43;;;3.00;;
14903;SDS011;7543;53.148;8.234;2023-08-20T00:04:10;4.83;;;3.13;;
14903;SDS011;7543;53.148;8.234;2023-08-20T00:06:39;5.13;;;3.07;;
14903;SDS011;7543;53.148;8.234;2023-08-20T00:09:09;4.10;;;2.90;;
14903;SDS011;7543;53.148;8.234;2023-08-20T00:11:38;4.93;;;2.70;;
14903;SDS011;7543;53.148;8.234;2023-08-20T00:14:06;5.00;;;3.00;;
14903;SDS011;7543;53.148;8.234;2023-08-20T00:16:34;4.00;;;3.20;;
14903;SDS011;7543;53.148;8.234;2023-08-20T00:19:03;8.37;;;3.13;;
14903;SDS011;7543;53.148;8.234;2023-08-20T00:21:35;6.43;;;3.43;;
14903;SDS011;7543;53.148;8.234;2023-08-20T00:24:04;9.20;;;3.60;;
14903;SDS011;7543;53.148;8.234;2023-08-20T00:26:33;3.77;;;2.87;;
14903;SDS011;7543;53.148;8.234;2023-08-20T00:29:02;5.73;;;3.03;;
14903;SDS011;7543;53.148;8.234;2023-08-20T00:31:31;4.10;;;2.90;;
14903;SDS011;7543;53.148;8.234;2023-08-20T00:33:59;6.37;;;3.63;;
14903;SDS011;7543;53.148;8.234;2023-08-20T00:36:27;5.17;;;3.10;;
14903;SDS011;7543;53.148;8.234;2023-08-20T00:38:57;3.93;;;3.00;;
14903;SDS011;7543;53.148;8.234;2023-08-20T00:41:25;5.60;;;2.87;;
14903;SDS011;7543;53.148;8.234;2023-08-20T00:43:54;6.77;;;3.23;;
14903;SDS011;7543;53.148;8.234;2023-08-20T00:46:22;5.23;;;2.87;;
14903;SDS011;7543;53.148;8.234;2023-08-20T00:48:50;3.73;;;2.93;;
14903;SDS011;7543;53.148;8.234;2023-08-20T00:51:19;4.97;;;3.33;;
14903;SDS011;7543;53.148;8.234;2023-08-20T00:53:47;3.77;;;2.73;;
14903;SDS011;7543;53.148;8.234;2023-08-20T00:56:17;5.37;;;3.27;;
14903;SDS011;7543;53.148;8.234;2023-08-20T00:58:46;4.70;;;2.77;;
14903;SDS011;7543;53.148;8.234;2023-08-20T01:01:14;4.73;;;2.90;;
14903;SDS011;7543;53.148;8.234;2023-08-20T01:03:43;3.60;;;2.70;;
14903;SDS011;7543;53.148;8.234;2023-08-20T01:06:12;6.07;;;2.60;;
14903;SDS011;7543;53.148;8.234;2023-08-20T01:08:45;3.77;;;2.70;;
14903;SDS011;7543;53.148;8.234;2023-08-20T01:11:20;6.00;;;2.77;;
14903;SDS011;7543;53.148;8.234;2023-08-20T01:13:54;4.17;;;2.80;;
14903;SDS011;7543;53.148;8.234;2023-08-20T01:16:22;6.53;;;2.73;;
14903;SDS011;7543;53.148;8.234;2023-08-20T01:18:50;3.60;;;2.60;;
14903;SDS011;7543;53.148;8.234;2023-08-20T01:21:20;3.87;;;2.70;;
14903;SDS011;7543;53.148;8.234;2023-08-20T01:23:58;5.97;;;2.90;;
14903;SDS011;7543;53.148;8.234;2023-08-20T01:26:44;4.97;;;2.70;;
14903;SDS011;7543;53.148;8.234;2023-08-20T01:29:20;4.87;;;2.97;;
14903;SDS011;7543;53.148;8.234;2023-08-20T01:31:48;4.60;;;2.77;;
14903;SDS011;7543;53.148;8.234;2023-08-20T01:34:20;4.67;;;2.50;;
14903;SDS011;7543;53.148;8.234;2023-08-20T01:36:49;4.63;;;2.90;;
14903;SDS011;7543;53.148;8.234;2023-08-20T01:39:17;5.67;;;2.50;;
14903;SDS011;7543;53.148;8.234;2023-08-20T01:41:46;6.03;;;2.77;;
14903;SDS011;7543;53.148;8.234;2023-08-20T01:44:14;7.43;;;2.87;;
14903;SDS011;7543;53.148;8.234;2023-08-20T01:46:44;5.27;;;2.77;;
14903;SDS011;7543;53.148;8.234;2023-08-20T01:49:12;4.07;;;2.50;;
14903;SDS011;7543;53.148;8.234;2023-08-20T01:51:41;4.53;;;2.87;;
14903;SDS011;7543;53.148;8.234;2023-08-20T01:54:08;3.77;;;2.23;;
14903;SDS011;7543;53.148;8.234;2023-08-20T01:56:37;2.90;;;2.37;;
14903;SDS011;7543;53.148;8.234;2023-08-20T01:59:05;3.07;;;2.40;;
14903;SDS011;7543;53.148;8.234;2023-08-20T02:01:34;3.53;;;2.70;;
14903;SDS011;7543;53.148;8.234;2023-08-20T02:04:04;3.77;;;2.70;;
14903;SDS011;7543;53.148;8.234;2023-08-20T02:06:32;6.00;;;2.63;;
14903;SDS011;7543;53.148;8.234;2023-08-20T02:09:00;2.63;;;2.27;;
14903;SDS011;7543;53.148;8.234;2023-08-20T02:11:29;5.57;;;2.40;;
14903;SDS011;7543;53.148;8.234;2023-08-20T02:14:02;3.57;;;2.43;;
14903;SDS011;7543;53.148;8.234;2023-08-20T02:16:30;3.50;;;2.40;;
14903;SDS011;7543;53.148;8.234;2023-08-20T02:19:00;3.47;;;2.40;;
14903;SDS011;7543;53.148;8.234;2023-08-20T02:21:31;6.57;;;2.77;;
14903;SDS011;7543;53.148;8.234;2023-08-20T02:24:00;5.43;;;2.60;;
14903;SDS011;7543;53.148;8.234;2023-08-20T02:26:28;3.67;;;2.53;;
14903;SDS011;7543;53.148;8.234;2023-08-20T02:28:56;4.13;;;2.43;;
14903;SDS011;7543;53.148;8.234;2023-08-20T02:31:25;4.10;;;2.67;;
14903;SDS011;7543;53.148;8.234;2023-08-20T02:33:53;3.53;;;2.27;;
14903;SDS011;7543;53.148;8.234;2023-08-20T02:36:21;3.63;;;2.70;;
14903;SDS011;7543;53.148;8.234;2023-08-20T02:38:51;3.30;;;2.50;;
14903;SDS011;7543;53.148;8.234;2023-08-20T02:41:19;3.33;;;2.40;;
14903;SDS011;7543;53.148;8.234;2023-08-20T02:43:48;6.47;;;2.63;;
14903;SDS011;7543;53.148;8.234;2023-08-20T02:46:16;4.03;;;2.43;;
14903;SDS011;7543;53.148;8.234;2023-08-20T02:48:44;3.67;;;2.63;;
14903;SDS011;7543;53.148;8.234;2023-08-20T02:51:13;3.80;;;2.87;;
14903;SDS011;7543;53.148;8.234;2023-08-20T02:53:41;4.27;;;2.47;;
14903;SDS011;7543;53.148;8.234;2023-08-20T02:56:11;5.67;;;2.57;;
14903;SDS011;7543;53.148;8.234;2023-08-20T02:58:39;3.27;;;2.37;;
14903;SDS011;7543;53.148;8.234;2023-08-20T03:01:17;3.30;;;2.20;;
14903;SDS011;7543;53.148;8.234;2023-08-20T03:03:46;2.97;;;2.43;;
14903;SDS011;7543;53.148;8.234;2023-08-20T03:06:14;5.30;;;2.80;;
14903;SDS011;7543;53.148;8.234;2023-08-20T03:08:43;4.70;;;2.53;;
14903;SDS011;7543;53.148;8.234;2023-08-20T03:11:13;3.53;;;2.57;;
14903;SDS011;7543;53.148;8.234;2023-08-20T03:13:41;4.50;;;2.60;;
14903;SDS011;7543;53.148;8.234;2023-08-20T03:16:09;5.40;;;2.43;;
14903;SDS011;7543;53.148;8.234;2023-08-20T03:18:38;3.40;;;2.40;;
14903;SDS011;7543;53.148;8.234;2023-08-20T03:21:06;3.43;;;2.60;;
14903;SDS011;7543;53.148;8.234;2023-08-20T03:23:35;4.03;;;2.73;;
14903;SDS011;7543;53.148;8.234;2023-08-20T03:26:03;6.07;;;2.47;;
14903;SDS011;7543;53.148;8.234;2023-08-20T03:28:34;5.43;;;2.67;;
14903;SDS011;7543;53.148;8.234;2023-08-20T03:31:03;3.73;;;2.80;;
14903;SDS011;7543;53.148;8.234;2023-08-20T03:33:36;4.33;;;2.70;;
14903;SDS011;7543;53.148;8.234;2023-08-20T03:36:04;2.57;;;2.13;;
14903;SDS011;7543;53.148;8.234;2023-08-20T03:38:33;3.03;;;2.20;;
14903;SDS011;7543;53.148;8.234;2023-08-20T03:41:01;3.10;;;2.30;;
14903;SDS011;7543;53.148;8.234;2023-08-20T03:43:29;5.60;;;2.80;;
14903;SDS011;7543;53.148;8.234;2023-08-20T03:45:59;4.63;;;2.77;;
14903;SDS011;7543;53.148;8.234;2023-08-20T03:48:28;4.67;;;3.00;;
14903;SDS011;7543;53.148;8.234;2023-08-20T03:50:57;4.13;;;2.70;;
14903;SDS011;7543;53.148;8.234;2023-08-20T03:53:25;4.70;;;3.03;;
14903;SDS011;7543;53.148;8.234;2023-08-20T03:55:53;5.37;;;3.17;;
14903;SDS011;7543;53.148;8.234;2023-08-20T03:58:22;6.20;;;3.40;;
14903;SDS011;7543;53.148;8.234;2023-08-20T04:00:50;5.07;;;3.00;;
14903;SDS011;7543;53.148;8.234;2023-08-20T04:03:20;3.50;;;3.07;;
14903;SDS011;7543;53.148;8.234;2023-08-20T04:05:49;4.30;;;3.40;;
14903;SDS011;7543;53.148;8.234;2023-08-20T04:08:17;5.17;;;3.33;;
14903;SDS011;7543;53.148;8.234;2023-08-20T04:10:46;3.47;;;3.07;;
14903;SDS011;7543;53.148;8.234;2023-08-20T04:13:14;5.37;;;3.67;;
14903;SDS011;7543;53.148;8.234;2023-08-20T04:15:43;7.13;;;3.70;;
14903;SDS011;7543;53.148;8.234;2023-08-20T04:18:11;6.33;;;4.07;;
14903;SDS011;7543;53.148;8.234;2023-08-20T04:20:41;8.67;;;4.00;;
14903;SDS011;7543;53.148;8.234;2023-08-20T04:23:10;9.93;;;4.13;;
14903;SDS011;7543;53.148;8.234;2023-08-20T04:25:38;7.03;;;3.57;;
14903;SDS011;7543;53.148;8.234;2023-08-20T04:28:07;11.00;;;3.97;;
14903;SDS011;7543;53.148;8.234;2023-08-20T04:30:35;8.30;;;3.73;;
14903;SDS011;7543;53.148;8.234;2023-08-20T04:33:05;6.53;;;3.33;;
14903;SDS011;7543;53.148;8.234;2023-08-20T04:35:34;4.83;;;3.20;;
14903;SDS011;7543;53.148;8.234;2023-08-20T04:38:05;7.00;;;3.50;;
14903;SDS011;7543;53.148;8.234;2023-08-20T04:40:35;6.33;;;3.47;;
14903;SDS011;7543;53.148;8.234;2023-08-20T04:43:04;4.50;;;2.77;;
14903;SDS011;7543;53.148;8.234;2023-08-20T04:45:32;7.03;;;3.37;;
14903;SDS011;7543;53.148;8.234;2023-08-20T04:48:01;6.07;;;3.20;;
14903;SDS011;7543;53.148;8.234;2023-08-20T04:50:30;6.40;;;3.77;;
14903;SDS011;7543;53.148;8.234;2023-08-20T04:52:59;6.60;;;3.20;;
14903;SDS011;7543;53.148;8.234;2023-08-20T04:55:29;7.00;;;3.60;;
14903;SDS011;7543;53.148;8.234;2023-08-20T04:57:58;6.57;;;3.80;;
14903;SDS011;7543;53.148;8.234;2023-08-20T05:00:27;6.50;;;3.17;;
14903;SDS011;7543;53.148;8.234;2023-08-20T05:03:07;6.13;;;3.97;;
14903;SDS011;7543;53.148;8.234;2023-08-20T05:05:35;5.60;;;3.40;;
14903;SDS011;7543;53.148;8.234;2023-08-20T05:08:04;5.10;;;3.90;;
14903;SDS011;7543;53.148;8.234;2023-08-20T05:10:34;6.07;;;3.57;;
14903;SDS011;7543;53.148;8.234;2023-08-20T05:13:03;5.73;;;3.50;;
14903;SDS011;7543;53.148;8.234;2023-08-20T05:15:32;6.80;;;3.63;;
14903;SDS011;7543;53.148;8.234;2023-08-20T05:18:01;6.30;;;3.23;;
14903;SDS011;7543;53.148;8.234;2023-08-20T05:20:30;6.93;;;3.80;;
14903;SDS011;7543;53.148;8.234;2023-08-20T05:22:58;9.93;;;3.90;;
14903;SDS011;7543;53.148;8.234;2023-08-20T05:25:27;7.60;;;3.60;;
14903;SDS011;7543;53.148;8.234;2023-08-20T05:27:58;5.47;;;3.80;;
14903;SDS011;7543;53.148;8.234;2023-08-20T05:30:28;9.03;;;3.97;;
14903;SDS011;7543;53.148;8.234;2023-08-20T05:32:57;5.53;;;3.83;;
14903;SDS011;7543;53.148;8.234;2023-08-20T05:35:25;4.90;;;3.40;;
14903;SDS011;7543;53.148;8.234;2023-08-20T05:37:55;7.33;;;4.27;;
14903;SDS011;7543;53.148;8.234;2023-08-20T05:40:23;9.97;;;4.03;;
14903;SDS011;7543;53.148;8.234;2023-08-20T05:42:52;6.47;;;4.00;;
14903;SDS011;7543;53.148;8.234;2023-08-20T05:45:22;6.83;;;4.03;;
14903;SDS011;7543;53.148;8.234;2023-08-20T05:47:52;6.20;;;4.13;;
14903;SDS011;7543;53.148;8.234;2023-08-20T05:50:22;6.87;;;4.17;;
14903;SDS011;7543;53.148;8.234;2023-08-20T05:52:51;6.40;;;4.67;;
14903;SDS011;7543;53.148;8.234;2023-08-20T05:55:21;6.03;;;3.90;;
14903;SDS011;7543;53.148;8.234;2023-08-20T05:57:50;5.80;;;3.53;;
14903;SDS011;7543;53.148;8.234;2023-08-20T06:00:18;7.93;;;4.40;;
14903;SDS011;7543;53.148;8.234;2023-08-20T06:02:49;11.30;;;4.60;;
14903;SDS011;7543;53.148;8.234;2023-08-20T06:05:18;7.10;;;4.30;;
14903;SDS011;7543;53.148;8.234;2023-08-20T06:07:46;10.63;;;4.37;;
14903;SDS011;7543;53.148;8.234;2023-08-20T06:10:15;7.17;;;3.93;;
14903;SDS011;7543;53.148;8.234;2023-08-20T06:12:43;8.57;;;4.20;;
14903;SDS011;7543;53.148;8.234;2023-08-20T06:15:11;5.87;;;3.70;;
14903;SDS011;7543;53.148;8.234;2023-08-20T06:17:40;8.50;;;4.07;;
14903;SDS011;7543;53.148;8.234;2023-08-20T06:20:10;9.53;;;4.73;;
14903;SDS011;7543;53.148;8.234;2023-08-20T06:22:39;8.17;;;4.90;;
14903;SDS011;7543;53.148;8.234;2023-08-20T06:25:07;10.43;;;4.83;;
14903;SDS011;7543;53.148;8.234;2023-08-20T06:27:36;7.70;;;4.80;;
14903;SDS011;7543;53.148;8.234;2023-08-20T06:30:05;6.33;;;4.13;;
14903;SDS011;7543;53.148;8.234;2023-08-20T06:32:34;8.80;;;4.27;;
14903;SDS011;7543;53.148;8.234;2023-08-20T06:35:02;7.87;;;4.47;;
14903;SDS011;7543;53.148;8.234;2023-08-20T06:37:33;8.43;;;4.47;;
14903;SDS011;7543;53.148;8.234;2023-08-20T06:40:01;6.30;;;4.30;;
14903;SDS011;7543;53.148;8.234;2023-08-20T06:42:30;8.53;;;4.27;;
14903;SDS011;7543;53.148;8.234;2023-08-20T06:44:58;8.83;;;4.37;;
14903;SDS011;7543;53.148;8.234;2023-08-20T06:47:26;8.47;;;4.30;;
14903;SDS011;7543;53.148;8.234;2023-08-20T06:49:54;5.43;;;3.73;;
14903;SDS011;7543;53.148;8.234;2023-08-20T06:52:23;9.23;;;4.07;;
14903;SDS011;7543;53.148;8.234;2023-08-20T06:54:52;7.83;;;3.83;;
14903;SDS011;7543;53.148;8.234;2023-08-20T06:57:21;6.30;;;3.93;;
14903;SDS011;7543;53.148;8.234;2023-08-20T06:59:49;6.20;;;3.70;;
14903;SDS011;7543;53.148;8.234;2023-08-20T07:02:17;7.93;;;4.20;;
14903;SDS011;7543;53.148;8.234;2023-08-20T07:04:46;6.53;;;3.93;;
14903;SDS011;7543;53.148;8.234;2023-08-20T07:07:14;7.27;;;3.87;;
14903;SDS011;7543;53.148;8.234;2023-08-20T07:09:42;7.33;;;3.57;;
14903;SDS011;7543;53.148;8.234;2023-08-20T07:12:12;7.80;;;4.17;;
14903;SDS011;7543;53.148;8.234;2023-08-20T07:14:40;6.17;;;3.40;;
14903;SDS011;7543;53.148;8.234;2023-08-20T07:17:09;6.40;;;3.57;;
14903;SDS011;7543;53.148;8.234;2023-08-20T07:19:37;6.73;;;3.93;;
14903;SDS011;7543;53.148;8.234;2023-08-20T07:22:06;8.33;;;3.57;;
14903;SDS011;7543;53.148;8.234;2023-08-20T07:24:34;9.77;;;3.83;;
14903;SDS011;7543;53.148;8.234;2023-08-20T07:27:02;6.27;;;3.43;;
14903;SDS011;7543;53.148;8.234;2023-08-20T07:29:38;8.57;;;4.00;;
14903;SDS011;7543;53.148;8.234;2023-08-20T07:32:08;8.17;;;3.30;;
14903;SDS011;7543;53.148;8.234;2023-08-20T07:34:37;5.77;;;3.47;;
14903;SDS011;7543;53.148;8.234;2023-08-20T07:37:05;10.03;;;3.30;;
14903;SDS011;7543;53.148;8.234;2023-08-20T07:39:33;6.17;;;3.30;;
14903;SDS011;7543;53.148;8.234;2023-08-20T07:42:02;7.43;;;3.40;;
14903;SDS011;7543;53.148;8.234;2023-08-20T07:44:30;9.23;;;2.13;;
14903;SDS011;7543;53.148;8.234;2023-08-20T07:47:00;7.53;;;2.70;;
14903;SDS011;7543;53.148;8.234;2023-08-20T07:49:28;5.43;;;2.70;;
14903;SDS011;7543;53.148;8.234;2023-08-20T07:51:57;6.30;;;2.60;;
14903;SDS011;7543;53.148;8.234;2023-08-20T07:54:25;5.83;;;2.87;;
14903;SDS011;7543;53.148;8.234;2023-08-20T07:56:55;8.20;;;3.22;;
14903;SDS011;7543;53.148;8.234;2023-08-20T07:59:23;4.30;;;2.58;;
14903;SDS011;7543;53.148;8.234;2023-08-20T08:01:51;4.47;;;2.55;;
14903;SDS011;7543;53.148;8.234;2023-08-20T08:04:21;8.63;;;2.80;;
14903;SDS011;7543;53.148;8.234;2023-08-20T08:06:49;4.30;;;2.13;;
14903;SDS011;7543;53.148;8.234;2023-08-20T08:09:18;8.98;;;2.75;;
14903;SDS011;7543;53.148;8.234;2023-08-20T08:11:46;7.60;;;2.97;;
14903;SDS011;7543;53.148;8.234;2023-08-20T08:14:15;5.82;;;2.90;;
14903;SDS011;7543;53.148;8.234;2023-08-20T08:16:44;5.45;;;2.53;;
14903;SDS011;7543;53.148;8.234;2023-08-20T08:19:14;5.13;;;2.35;;
14903;SDS011;7543;53.148;8.234;2023-08-20T08:21:44;7.55;;;2.40;;
14903;SDS011;7543;53.148;8.234;2023-08-20T08:24:12;3.40;;;2.00;;
14903;SDS011;7543;53.148;8.234;2023-08-20T08:26:41;9.20;;;2.38;;
14903;SDS011;7543;53.148;8.234;2023-08-20T08:29:10;8.40;;;2.00;;
14903;SDS011;7543;53.148;8.234;2023-08-20T08:31:38;4.05;;;2.10;;
14903;SDS011;7543;53.148;8.234;2023-08-20T08:34:06;5.53;;;2.47;;
14903;SDS011;7543;53.148;8.234;2023-08-20T08:36:35;8.60;;;2.33;;
14903;SDS011;7543;53.148;8.234;2023-08-20T08:39:04;5.55;;;1.90;;
14903;SDS011;7543;53.148;8.234;2023-08-20T08:41:35;7.07;;;2.20;;
14903;SDS011;7543;53.148;8.234;2023-08-20T08:44:07;4.93;;;2.38;;
14903;SDS011;7543;53.148;8.234;2023-08-20T08:46:36;4.70;;;2.00;;
14903;SDS011;7543;53.148;8.234;2023-08-20T08:49:06;6.43;;;2.58;;
14903;SDS011;7543;53.148;8.234;2023-08-20T08:51:36;4.63;;;1.83;;
14903;SDS011;7543;53.148;8.234;2023-08-20T08:54:06;6.60;;;2.15;;
14903;SDS011;7543;53.148;8.234;2023-08-20T08:56:35;5.40;;;2.58;;
14903;SDS011;7543;53.148;8.234;2023-08-20T08:59:04;5.63;;;2.60;;
14903;SDS011;7543;53.148;8.234;2023-08-20T09:01:32;5.72;;;2.22;;
14903;SDS011;7543;53.148;8.234;2023-08-20T09:04:05;4.53;;;2.17;;
14903;SDS011;7543;53.148;8.234;2023-08-20T09:06:43;7.85;;;2.50;;
14903;SDS011;7543;53.148;8.234;2023-08-20T09:09:14;5.85;;;2.20;;
14903;SDS011;7543;53.148;8.234;2023-08-20T09:11:45;6.82;;;2.38;;
14903;SDS011;7543;53.148;8.234;2023-08-20T09:14:23;8.07;;;2.63;;
14903;SDS011;7543;53.148;8.234;2023-08-20T09:16:55;6.47;;;2.38;;
14903;SDS011;7543;53.148;8.234;2023-08-20T09:19:27;5.88;;;2.33;;
14903;SDS011;7543;53.148;8.234;2023-08-20T09:21:57;6.50;;;2.45;;
14903;SDS011;7543;53.148;8.234;2023-08-20T09:24:32;7.88;;;2.42;;
14903;SDS011;7543;53.148;8.234;2023-08-20T09:27:02;7.28;;;2.67;;
14903;SDS011;7543;53.148;8.234;2023-08-20T09:29:32;7.85;;;2.28;;
14903;SDS011;7543;53.148;8.234;2023-08-20T09:32:01;6.72;;;2.08;;
14903;SDS011;7543;53.148;8.234;2023-08-20T09:34:36;6.43;;;2.13;;
14903;SDS011;7543;53.148;8.234;2023-08-20T09:37:09;6.07;;;2.20;;
14903;SDS011;7543;53.148;8.234;2023-08-20T09:39:39;6.20;;;2.30;;
14903;SDS011;7543;53.148;8.234;2023-08-20T09:42:09;3.92;;;1.90;;
14903;SDS011;7543;53.148;8.234;2023-08-20T09:44:40;6.82;;;2.13;;
14903;SDS011;7543;53.148;8.234;2023-08-20T09:47:09;8.60;;;2.20;;
14903;SDS011;7543;53.148;8.234;2023-08-20T09:49:38;5.88;;;2.20;;
14903;SDS011;7543;53.148;8.234;2023-08-20T09:52:08;3.67;;;2.03;;
14903;SDS011;7543;53.148;8.234;2023-08-20T09:54:43;7.55;;;2.53;;
14903;SDS011;7543;53.148;8.234;2023-08-20T09:57:19;5.20;;;2.22;;
14903;SDS011;7543;53.148;8.234;2023-08-20T09:59:54;4.88;;;2.20;;
14903;SDS011;7543;53.148;8.234;2023-08-20T10:02:23;6.03;;;2.10;;
14903;SDS011;7543;53.148;8.234;2023-08-20T10:04:52;6.65;;;2.15;;
14903;SDS011;7543;53.148;8.234;2023-08-20T10:07:21;5.50;;;1.90;;
14903;SDS011;7543;53.148;8.234;2023-08-20T10:09:52;6.32;;;2.03;;
14903;SDS011;7543;53.148;8.234;2023-08-20T10:12:21;3.17;;;1.80;;
14903;SDS011;7543;53.148;8.234;2023-08-20T10:14:49;2.80;;;1.90;;
14903;SDS011;7543;53.148;8.234;2023-08-20T10:17:19;3.55;;;1.88;;
14903;SDS011;7543;53.148;8.234;2023-08-20T10:19:47;5.65;;;2.17;;
14903;SDS011;7543;53.148;8.234;2023-08-20T10:22:16;4.97;;;1.75;;
14903;SDS011;7543;53.148;8.234;2023-08-20T10:24:48;5.30;;;2.40;;
14903;SDS011;7543;53.148;8.234;2023-08-20T10:27:27;6.63;;;2.22;;
14903;SDS011;7543;53.148;8.234;2023-08-20T10:29:59;5.57;;;2.00;;
14903;SDS011;7543;53.148;8.234;2023-08-20T10:32:43;8.27;;;2.20;;
14903;SDS011;7543;53.148;8.234;2023-08-20T10:35:12;4.47;;;2.08;;
14903;SDS011;7543;53.148;8.234;2023-08-20T10:37:44;5.70;;;2.28;;
14903;SDS011;7543;53.148;8.234;2023-08-20T10:43:24;3.75;;;2.03;;
14903;SDS011;7543;53.148;8.234;2023-08-20T10:46:07;3.38;;;2.00;;
14903;SDS011;7543;53.148;8.234;2023-08-20T10:48:41;5.13;;;2.17;;
14903;SDS011;7543;53.148;8.234;2023-08-20T10:51:13;4.00;;;2.05;;
14903;SDS011;7543;53.148;8.234;2023-08-20T10:53:43;5.05;;;2.10;;
14903;SDS011;7543;53.148;8.234;2023-08-20T10:56:12;6.55;;;2.40;;
14903;SDS011;7543;53.148;8.234;2023-08-20T10:58:43;5.88;;;2.55;;
14903;SDS011;7543;53.148;8.234;2023-08-20T11:01:17;3.67;;;1.92;;
14903;SDS011;7543;53.148;8.234;2023-08-20T11:03:47;7.57;;;2.20;;
14903;SDS011;7543;53.148;8.234;2023-08-20T11:06:17;5.57;;;2.10;;
14903;SDS011;7543;53.148;8.234;2023-08-20T11:08:46;5.65;;;1.90;;
14903;SDS011;7543;53.148;8.234;2023-08-20T11:11:15;5.35;;;2.08;;
14903;SDS011;7543;53.148;8.234;2023-08-20T11:13:46;6.57;;;2.38;;
14903;SDS011;7543;53.148;8.234;2023-08-20T11:16:15;4.45;;;1.80;;
14903;SDS011;7543;53.148;8.234;2023-08-20T11:18:43;6.85;;;1.90;;
14903;SDS011;7543;53.148;8.234;2023-08-20T11:21:11;4.78;;;2.00;;
14903;SDS011;7543;53.148;8.234;2023-08-20T11:23:40;3.50;;;1.83;;
14903;SDS011;7543;53.148;8.234;2023-08-20T11:26:10;6.05;;;1.67;;
14903;SDS011;7543;53.148;8.234;2023-08-20T11:28:38;5.00;;;2.20;;
14903;SDS011;7543;53.148;8.234;2023-08-20T11:31:08;6.65;;;2.10;;
14903;SDS011;7543;53.148;8.234;2023-08-20T11:33:36;4.32;;;1.67;;
14903;SDS011;7543;53.148;8.234;2023-08-20T11:36:05;3.05;;;1.75;;
14903;SDS011;7543;53.148;8.234;2023-08-20T11:38:33;4.75;;;1.63;;
14903;SDS011;7543;53.148;8.234;2023-08-20T11:41:02;6.88;;;2.10;;
14903;SDS011;7543;53.148;8.234;2023-08-20T11:43:30;4.40;;;1.65;;
14903;SDS011;7543;53.148;8.234;2023-08-20T11:45:59;2.35;;;1.52;;
14903;SDS011;7543;53.148;8.234;2023-08-20T11:48:29;3.55;;;1.40;;
14903;SDS011;7543;53.148;8.234;2023-08-20T11:50:57;3.80;;;1.67;;
14903;SDS011;7543;53.148;8.234;2023-08-20T11:53:26;3.28;;;1.67;;
14903;SDS011;7543;53.148;8.234;2023-08-20T11:55:56;5.75;;;2.05;;
14903;SDS011;7543;53.148;8.234;2023-08-20T11:58:28;4.40;;;1.38;;
14903;SDS011;7543;53.148;8.234;2023-08-20T12:00:57;5.40;;;1.58;;
14903;SDS011;7543;53.148;8.234;2023-08-20T12:03:30;3.50;;;1.45;;
14903;SDS011;7543;53.148;8.234;2023-08-20T12:05:58;4.35;;;1.77;;
14903;SDS011;7543;53.148;8.234;2023-08-20T12:08:27;4.40;;;1.50;;
14903;SDS011;7543;53.148;8.234;2023-08-20T12:10:57;3.60;;;1.40;;
14903;SDS011;7543;53.148;8.234;2023-08-20T12:13:25;3.65;;;1.27;;
14903;SDS011;7543;53.148;8.234;2023-08-20T12:15:54;6.50;;;1.60;;
14903;SDS011;7543;53.148;8.234;2023-08-20T12:18:22;4.13;;;1.30;;
14903;SDS011;7543;53.148;8.234;2023-08-20T12:20:52;2.47;;;1.55;;
14903;SDS011;7543;53.148;8.234;2023-08-20T12:23:20;2.90;;;1.50;;
14903;SDS011;7543;53.148;8.234;2023-08-20T12:25:49;4.10;;;1.70;;
14903;SDS011;7543;53.148;8.234;2023-08-20T12:28:18;4.95;;;1.58;;
14903;SDS011;7543;53.148;8.234;2023-08-20T12:30:46;2.90;;;1.20;;
14903;SDS011;7543;53.148;8.234;2023-08-20T12:33:15;4.65;;;1.45;;
14903;SDS011;7543;53.148;8.234;2023-08-20T12:35:44;3.63;;;1.50;;
14903;SDS011;7543;53.148;8.234;2023-08-20T12:38:14;4.70;;;1.33;;
14903;SDS011;7543;53.148;8.234;2023-08-20T12:40:43;2.20;;;1.25;;
14903;SDS011;7543;53.148;8.234;2023-08-20T12:43:12;2.35;;;1.15;;
14903;SDS011;7543;53.148;8.234;2023-08-20T12:45:40;2.88;;;1.30;;
14903;SDS011;7543;53.148;8.234;2023-08-20T12:48:09;2.35;;;1.38;;
14903;SDS011;7543;53.148;8.234;2023-08-20T12:50:37;2.22;;;0.98;;
14903;SDS011;7543;53.148;8.234;2023-08-20T12:53:05;3.25;;;1.08;;
14903;SDS011;7543;53.148;8.234;2023-08-20T12:55:35;4.78;;;0.93;;
14903;SDS011;7543;53.148;8.234;2023-08-20T12:58:03;3.88;;;1.10;;
14903;SDS011;7543;53.148;8.234;2023-08-20T13:00:32;2.03;;;0.80;;
14903;SDS011;7543;53.148;8.234;2023-08-20T13:03:01;0.98;;;0.60;;
14903;SDS011;7543;53.148;8.234;2023-08-20T13:05:30;1.55;;;0.90;;
14903;SDS011;7543;53.148;8.234;2023-08-20T13:07:59;2.45;;;0.82;;
14903;SDS011;7543;53.148;8.234;2023-08-20T13:10:28;3.15;;;0.90;;
14903;SDS011;7543;53.148;8.234;2023-08-20T13:12:59;3.33;;;0.90;;
14903;SDS011;7543;53.148;8.234;2023-08-20T13:15:29;1.42;;;0.88;;
14903;SDS011;7543;53.148;8.234;2023-08-20T13:17:58;1.48;;;0.93;;
14903;SDS011;7543;53.148;8.234;2023-08-20T13:20:27;2.15;;;0.90;;
14903;SDS011;7543;53.148;8.234;2023-08-20T13:22:55;2.22;;;0.73;;
14903;SDS011;7543;53.148;8.234;2023-08-20T13:25:23;4.15;;;0.85;;
14903;SDS011;7543;53.148;8.234;2023-08-20T13:27:52;2.38;;;0.90;;
14903;SDS011;7543;53.148;8.234;2023-08-20T13:30:21;2.58;;;0.90;;
14903;SDS011;7543;53.148;8.234;2023-08-20T13:32:50;1.70;;;0.75;;
14903;SDS011;7543;53.148;8.234;2023-08-20T13:35:18;2.90;;;0.98;;
14903;SDS011;7543;53.148;8.234;2023-08-20T13:37:46;0.73;;;0.68;;
14903;SDS011;7543;53.148;8.234;2023-08-20T13:40:15;2.40;;;0.90;;
14903;SDS011;7543;53.148;8.234;2023-08-20T13:42:43;3.30;;;0.80;;
14903;SDS011;7543;53.148;8.234;2023-08-20T13:45:11;3.60;;;0.80;;
14903;SDS011;7543;53.148;8.234;2023-08-20T13:47:41;1.85;;;0.60;;
14903;SDS011;7543;53.148;8.234;2023-08-20T13:50:11;2.95;;;0.70;;
14903;SDS011;7543;53.148;8.234;2023-08-20T13:52:42;1.95;;;0.77;;
14903;SDS011;7543;53.148;8.234;2023-08-20T13:55:11;1.65;;;0.80;;
14903;SDS011;7543;53.148;8.234;2023-08-20T13:57:40;1.10;;;0.63;;
14903;SDS011;7543;53.148;8.234;2023-08-20T14:00:08;1.70;;;0.70;;
14903;SDS011;7543;53.148;8.234;2023-08-20T14:02:40;1.75;;;0.70;;
14903;SDS011;7543;53.148;8.234;2023-08-20T14:05:09;1.52;;;0.70;;
14903;SDS011;7543;53.148;8.234;2023-08-20T14:07:41;2.00;;;0.70;;
14903;SDS011;7543;53.148;8.234;2023-08-20T14:10:09;0.77;;;0.50;;
14903;SDS011;7543;53.148;8.234;2023-08-20T14:12:38;2.25;;;0.63;;
14903;SDS011;7543;53.148;8.234;2023-08-20T14:15:07;1.10;;;0.70;;
14903;SDS011;7543;53.148;8.234;2023-08-20T14:17:36;1.30;;;0.70;;
14903;SDS011;7543;53.148;8.234;2023-08-20T14:20:06;0.70;;;0.45;;
14903;SDS011;7543;53.148;8.234;2023-08-20T14:22:37;0.90;;;0.60;;
14903;SDS011;7543;53.148;8.234;2023-08-20T14:25:06;0.52;;;0.40;;
14903;SDS011;7543;53.148;8.234;2023-08-20T14:27:35;1.42;;;0.55;;
14903;SDS011;7543;53.148;8.234;2023-08-20T14:30:04;2.42;;;0.80;;
14903;SDS011;7543;53.148;8.234;2023-08-20T14:32:34;1.27;;;0.55;;
14903;SDS011;7543;53.148;8.234;2023-08-20T14:35:03;1.88;;;0.70;;
14903;SDS011;7543;53.148;8.234;2023-08-20T14:37:33;1.33;;;0.50;;
14903;SDS011;7543;53.148;8.234;2023-08-20T14:40:02;0.70;;;0.57;;
14903;SDS011;7543;53.148;8.234;2023-08-20T14:42:33;0.80;;;0.50;;
14903;SDS011;7543;53.148;8.234;2023-08-20T14:45:01;1.30;;;0.57;;
14903;SDS011;7543;53.148;8.234;2023-08-20T14:47:30;1.45;;;0.50;;
14903;SDS011;7543;53.148;8.234;2023-08-20T14:50:00;1.17;;;0.65;;
14903;SDS011;7543;53.148;8.234;2023-08-20T14:52:29;0.85;;;0.45;;
14903;SDS011;7543;53.148;8.234;2023-08-20T14:54:59;0.73;;;0.40;;
14903;SDS011;7543;53.148;8.234;2023-08-20T14:57:27;0.82;;;0.45;;
14903;SDS011;7543;53.148;8.234;2023-08-20T14:59:55;1.55;;;0.50;;
14903;SDS011;7543;53.148;8.234;2023-08-20T15:02:23;0.85;;;0.45;;
14903;SDS011;7543;53.148;8.234;2023-08-20T15:04:52;1.48;;;0.73;;
14903;SDS011;7543;53.148;8.234;2023-08-20T15:07:20;2.38;;;0.60;;
14903;SDS011;7543;53.148;8.234;2023-08-20T15:09:49;1.35;;;0.50;;
14903;SDS011;7543;53.148;8.234;2023-08-20T15:12:18;1.25;;;0.65;;
14903;SDS011;7543;53.148;8.234;2023-08-20T15:14:47;1.13;;;0.60;;
14903;SDS011;7543;53.148;8.234;2023-08-20T15:17:15;0.75;;;0.45;;